• Join FlightAware (Why Join?)
  • Login
  • US Flag 
05:16PM EDT


 

Airport Tracker/Info


-or-


 

Live Flight TrackerFlight Track Log ✈ N80LP ✈ 23-Jun-2013 ✈ KMRY - KIAH

Flight Track Log - Related Links

Times and Time Zones

All times are in EDT time to prevent confusion due to time zone crossing. See the N80LP flight status page for this flight to view local times or setup timezone preferences in your user account.

Time Position Orientation Groundspeed Altitude Reporting Facility
EDT Latitude Longitude Course Direction KTS MPH feet Rate Location/Type
01:17PM 36.5833 -121.7833 90° East 194 223 3,200  Level Northern Cal TRACON
01:18PM 36.5833 -121.7000 90° East 242 278 6,200 2,940 Climbing Northern Cal TRACON
01:19PM 36.5667 -121.6167 104° East 252 290 9,400 2,760 Climbing Northern Cal TRACON
01:20PM 36.5358 -121.5736 132° Southeast 252 290 11,200 2,580 Climbing Oakland Center
01:21PM 36.4947 -121.5022 126° Southeast 253 291 13,900 2,580 Climbing Oakland Center
01:22PM 36.4539 -121.4275 124° Southeast 256 295 16,600 2,400 Climbing Oakland Center
01:23PM 36.4122 -121.3514 124° Southeast 261 300 18,900 1,260 Climbing Oakland Center
01:24PM 36.3617 -121.2583 124° Southeast 304 350 19,300 1,740 Climbing Oakland Center
01:25PM 36.2964 -121.1389 124° Southeast 340 391 22,500 2,520 Climbing Oakland Center
01:26PM 36.2436 -121.0439 125° Southeast 339 390 24,600 1,920 Climbing Oakland Center
01:27PM 36.1900 -120.9475 125° Southeast 340 391 26,500 1,380 Climbing Oakland Center
01:28PM 36.1342 -120.8461 124° Southeast 355 409 27,500 1,020 Climbing Oakland Center
01:29PM 36.0728 -120.7372 125° Southeast 379 436 28,600 900 Climbing Oakland Center
01:30PM 36.0108 -120.6225 124° Southeast 397 457 29,400 720 Climbing Oakland Center
01:31PM 35.9439 -120.5042 125° Southeast 414 476 30,100 600 Climbing Oakland Center
01:32PM 35.8894 -120.3711 117° Southeast 429 494 30,700 780 Climbing Oakland Center
01:33PM 35.8469 -120.2289 110° East 438 504 31,800 1,140 Climbing Oakland Center
01:34PM 35.7950 -120.0614 111° Southeast 436 502 33,100 1,140 Climbing Oakland Center
01:35PM 35.7531 -119.9222 110° East 432 497 34,200 1,080 Climbing Oakland Center
01:37PM 35.7125 -119.7861 110° East 424 488 35,400 1,020 Climbing Oakland Center
01:38PM 35.6519 -119.6658 122° Southeast 417 480 36,400 900 Climbing Oakland Center
01:39PM 35.5744 -119.5631 133° Southeast 410 472 37,300 720 Climbing Los Angeles Center
01:40PM 35.5103 -119.4822 134° Southeast 411 473 37,900 600 Climbing Los Angeles Center
01:41PM 35.4136 -119.3589 134° Southeast 416 479 38,600 480 Climbing Los Angeles Center
01:42PM 35.3317 -119.2567 134° Southeast 419 482 39,000 180 Climbing Los Angeles Center
01:43PM 35.2486 -119.1508 134° Southeast 427 491 39,000  Level Los Angeles Center
01:44PM 35.1614 -119.0433 135° Southeast 442 509 39,000  Level Los Angeles Center
01:45PM 35.0561 -118.9139 135° Southeast 448 516 39,000  Level Los Angeles Center
01:46PM 34.9689 -118.8056 134° Southeast 449 517 39,000  Level Los Angeles Center
01:47PM 34.8825 -118.6986 135° Southeast 451 519 39,000  Level Los Angeles Center
01:48PM 34.7953 -118.5908 135° Southeast 448 516 39,000  Level Los Angeles Center
01:49PM 34.6950 -118.4692 135° Southeast 452 520 39,000  Level Los Angeles Center
01:50PM 34.6003 -118.3522 135° Southeast 450 518 39,100 240 Climbing Los Angeles Center
01:51PM 34.5125 -118.2458 135° Southeast 445 512 39,500 420 Climbing Los Angeles Center
01:52PM 34.4269 -118.1414 135° Southeast 438 504 40,000 420 Climbing Los Angeles Center
01:53PM 34.3419 -118.0389 135° Southeast 431 496 40,400 300 Climbing Los Angeles Center
01:54PM 34.2575 -117.9364 135° Southeast 430 495 40,700 240 Climbing Los Angeles Center
01:55PM 34.1739 -117.8350 135° Southeast 426 490 40,900 120 Climbing Los Angeles Center
01:56PM 34.0889 -117.7328 135° Southeast 429 494 41,000  Climbing Los Angeles Center
01:57PM 33.9872 -117.6086 135° Southeast 432 497 41,000  Level Los Angeles Center
01:58PM 33.9242 -117.4786 120° Southeast 450 518 41,000  Level Los Angeles Center
01:59PM 33.8978 -117.3272 102° East 463 533 41,000  Level Los Angeles Center
02:00PM 33.8842 -117.2039 98° East 467 537 41,000  Level Los Angeles Center
02:01PM 33.8544 -117.0200 101° East 469 540 41,000  Level Los Angeles Center
02:02PM 33.8303 -116.8697 101° East 459 528 41,000  Level Los Angeles Center
02:03PM 33.8056 -116.7008 100° East 464 534 41,000  Level Los Angeles Center
02:04PM 33.7844 -116.5475 99° East 465 535 41,000  Level Los Angeles Center
02:05PM 33.7608 -116.3958 101° East 462 532 41,000  Level Los Angeles Center
02:06PM 33.7333 -116.2128 100° East 462 532 41,000  Level Los Angeles Center
02:07PM 33.7111 -116.0603 100° East 463 533 41,000  Level Los Angeles Center
02:09PM 33.6875 -115.9094 101° East 458 527 41,000  Level Los Angeles Center
02:10PM 33.6650 -115.7586 100° East 458 527 41,000  Level Los Angeles Center
02:11PM 33.6411 -115.6072 101° East 461 531 41,000  Level Los Angeles Center
02:12PM 33.6156 -115.4539 101° East 466 536 41,000  Level Los Angeles Center
02:13PM 33.5922 -115.3017 100° East 466 536 41,000  Level Los Angeles Center
02:14PM 33.5633 -115.1206 101° East 462 532 41,000  Level Los Angeles Center
02:15PM 33.5386 -114.9686 101° East 465 535 41,000  Level Los Angeles Center
02:16PM 33.5139 -114.8161 101° East 466 536 41,000  Level Los Angeles Center
02:17PM 33.4903 -114.6633 100° East 466 536 41,000  Level Los Angeles Center
02:18PM 33.4697 -114.5417 101° East 466 536 41,000  Level Los Angeles Center
02:19PM 33.4400 -114.3606 101° East 464 534 41,000  Level Los Angeles Center
02:20PM 33.4231 -114.1836 96° East 466 536 41,000  Level Albuquerque Center
02:21PM 33.4067 -114.0286 97° East 467 537 41,000  Level Albuquerque Center
02:22PM 33.3897 -113.8742 97° East 467 537 41,000  Level Albuquerque Center
02:23PM 33.3722 -113.7208 98° East 466 536 41,000  Level Albuquerque Center
02:24PM 33.3528 -113.5350 97° East 469 540 41,000  Level Albuquerque Center
02:25PM 33.3356 -113.3811 98° East 467 537 41,000  Level Albuquerque Center
02:26PM 33.3175 -113.2261 98° East 469 540 41,000  Level Albuquerque Center
02:27PM 33.2997 -113.0731 98° East 467 537 41,000  Level Albuquerque Center
02:28PM 33.2819 -112.9167 98° East 469 540 41,000  Level Albuquerque Center
02:29PM 33.2636 -112.7622 98° East 469 540 41,000  Level Albuquerque Center
02:30PM 33.2422 -112.5853 98° East 466 536 41,000  Level Albuquerque Center
02:31PM 33.2236 -112.4261 98° East 468 539 41,000  Level Albuquerque Center
02:32PM 33.2044 -112.2742 99° East 466 536 41,000  Level Albuquerque Center
02:33PM 33.1869 -112.1208 98° East 469 540 41,000  Level Albuquerque Center
02:34PM 33.1681 -111.9703 98° East 466 536 41,000  Level Albuquerque Center
02:35PM 33.1486 -111.8175 99° East 468 539 41,000  Level Albuquerque Center
02:36PM 33.1269 -111.6369 98° East 463 533 41,000  Level Albuquerque Center
02:37PM 33.1072 -111.4867 99° East 462 532 41,000  Level Albuquerque Center
02:39PM 33.0881 -111.3356 99° East 462 532 41,000  Level Albuquerque Center
02:40PM 33.0692 -111.1861 99° East 462 532 41,000  Level Albuquerque Center
02:41PM 33.0492 -111.0358 99° East 460 529 41,000  Level Albuquerque Center
02:42PM 33.0297 -110.8864 99° East 458 527 41,000  Level Albuquerque Center
02:43PM 33.0053 -110.7075 99° East 458 527 41,000  Level Albuquerque Center
02:44PM 32.9853 -110.5575 99° East 459 528 41,000  Level Albuquerque Center
02:45PM 32.9650 -110.4083 99° East 460 529 41,000  Level Albuquerque Center
02:46PM 32.9436 -110.2611 100° East 459 528 41,000  Level Albuquerque Center
02:47PM 32.9242 -110.1108 99° East 460 529 41,000  Level Albuquerque Center
02:48PM 32.8961 -109.9314 101° East 464 534 41,000  Level Albuquerque Center
02:49PM 32.8758 -109.7833 99° East 461 531 41,000  Level Albuquerque Center
02:50PM 32.8550 -109.6350 99° East 459 528 41,000  Level Albuquerque Center
02:51PM 32.8333 -109.4861 100° East 462 532 41,000  Level Albuquerque Center
02:52PM 32.8111 -109.3386 100° East 461 531 41,000  Level Albuquerque Center
02:53PM 32.7850 -109.1622 100° East 460 529 41,000  Level Albuquerque Center
02:54PM 32.7642 -109.0297 101° East 462 532 41,000  Level Albuquerque Center
02:55PM 32.7350 -108.8467 101° East 467 537 41,000  Level Albuquerque Center
02:56PM 32.7144 -108.6856 99° East 469 540 41,000  Level Albuquerque Center
02:57PM 32.6911 -108.5344 100° East 471 542 41,000  Level Albuquerque Center
02:58PM 32.6678 -108.3847 100° East 469 540 41,000  Level Albuquerque Center
02:59PM 32.6447 -108.2339 100° East 469 540 41,000  Level Albuquerque Center
03:00PM 32.6211 -108.0856 101° East 466 536 41,000  Level Albuquerque Center
03:01PM 32.5939 -107.9047 100° East 467 537 41,000  Level Albuquerque Center
03:02PM 32.5689 -107.7544 101° East 468 539 41,000  Level Albuquerque Center
03:03PM 32.5444 -107.6036 101° East 468 539 41,000  Level Albuquerque Center
03:04PM 32.5211 -107.4539 100° East 471 542 41,000  Level Albuquerque Center
03:05PM 32.4978 -107.3011 100° East 474 545 41,000  Level Albuquerque Center
03:06PM 32.4717 -107.1414 101° East 471 542 41,000  Level Albuquerque Center
03:07PM 32.4456 -106.9883 101° East 473 544 41,000  Level Albuquerque Center
03:08PM 32.4197 -106.8222 100° East 479 551 41,000  Level Albuquerque Center
03:10PM 32.3933 -106.6697 102° East 476 548 41,000  Level Albuquerque Center
03:11PM 32.3628 -106.4883 101° East 471 542 41,000  Level Albuquerque Center
03:12PM 32.3367 -106.3361 101° East 473 544 41,000  Level Albuquerque Center
03:13PM 32.3114 -106.1919 102° East 477 549 41,000  Level Albuquerque Center
03:14PM 32.2847 -106.0408 102° East 472 543 41,000  Level Albuquerque Center
03:15PM 32.2525 -105.8594 102° East 470 541 41,000  Level Albuquerque Center
03:16PM 32.2261 -105.7086 102° East 469 540 41,000  Level Albuquerque Center
03:17PM 32.2003 -105.5561 101° East 473 544 41,000  Level Albuquerque Center
03:18PM 32.1728 -105.4044 102° East 472 543 41,000  Level Albuquerque Center
03:19PM 32.1447 -105.2569 103° East 465 535 41,000  Level Albuquerque Center
03:20PM 32.1178 -105.1072 102° East 465 535 41,000  Level Albuquerque Center
03:21PM 32.0911 -104.9569 102° East 467 537 41,000  Level Albuquerque Center
03:22PM 32.0581 -104.7761 102° East 468 539 41,000  Level Albuquerque Center
03:23PM 32.0306 -104.6242 102° East 472 543 41,000  Level Albuquerque Center
03:24PM 32.0022 -104.4744 103° East 471 542 41,000  Level Albuquerque Center
03:25PM 31.9750 -104.3267 102° East 465 535 41,000  Level Albuquerque Center
03:26PM 31.9475 -104.1764 102° East 466 536 41,000  Level Albuquerque Center
03:27PM 31.9150 -104.0097 103° East 469 540 41,000  Level Albuquerque Center
03:28PM 31.8864 -103.8606 103° East 467 537 41,000  Level Albuquerque Center
03:29PM 31.8578 -103.7122 103° East 468 539 41,000  Level Albuquerque Center
03:30PM 31.8286 -103.5658 103° East 463 533 41,000  Level Albuquerque Center
03:31PM 31.7956 -103.3942 103° East 468 539 41,000  Level Albuquerque Center
03:32PM 31.7653 -103.2483 104° East 462 532 41,000  Level Albuquerque Center
03:33PM 31.7358 -103.1011 103° East 461 531 41,000  Level Albuquerque Center
03:34PM 31.7067 -102.9539 103° East 463 533 41,000  Level Albuquerque Center
03:35PM 31.6781 -102.8086 103° East 459 528 41,000  Level Albuquerque Center
03:36PM 31.6419 -102.6322 103° East 461 531 41,000  Level Albuquerque Center
03:37PM 31.6133 -102.4864 103° East 459 528 41,000  Level Albuquerque Center
03:38PM 31.5844 -102.3392 103° East 459 528 41,000  Level Albuquerque Center
03:39PM 31.5533 -102.1919 104° East 462 532 41,000  Level Albuquerque Center
03:41PM 31.5056 -101.9575 103° East 458 527 41,000  Level Houston Center
03:42PM 31.4744 -101.8139 104° East 454 522 41,000  Level Houston Center
03:43PM 31.4436 -101.6697 104° East 453 521 41,000  Level Houston Center
03:44PM 31.4125 -101.5272 104° East 452 520 41,000  Level Houston Center
03:45PM 31.3831 -101.3836 103° East 453 521 41,000  Level Houston Center
03:46PM 31.3517 -101.2411 104° East 452 520 41,000  Level Houston Center
03:47PM 31.3133 -101.0675 104° East 458 527 41,000  Level Houston Center
03:48PM 31.2881 -100.9461 104° East 458 527 41,000  Level Houston Center
03:49PM 31.2506 -100.7731 104° East 458 527 41,000  Level Houston Center
03:50PM 31.2172 -100.6294 105° East 458 527 41,000  Level Houston Center
03:51PM 31.1861 -100.4861 104° East 454 522 41,000  Level Houston Center
03:52PM 31.1539 -100.3419 105° East 458 527 41,000  Level Houston Center
03:53PM 31.1219 -100.1964 104° East 462 532 41,000  Level Houston Center
03:54PM 31.0892 -100.0508 105° East 463 533 41,000  Level Houston Center
03:56PM 31.0494 -99.8767 105° East 463 533 41,000  Level Houston Center
03:57PM 31.0353 -99.7261 96° East 465 535 41,000  Level Houston Center
03:58PM 31.0294 -99.5764 93° East 462 532 41,000 -240 Level Houston Center
03:59PM 31.0211 -99.4242 94° East 470 541 40,600 -900 Descending Houston Center
04:00PM 31.0133 -99.2742 93° East 464 534 39,200 -1,320 Descending Houston Center
04:01PM 31.0069 -99.1289 93° East 454 522 37,900 -1,440 Descending Houston Center
04:02PM 30.9978 -98.9653 94° East 433 498 36,300 -1,440 Descending Houston Center
04:03PM 30.9908 -98.8236 93° East 432 497 35,000 -1,260 Descending Houston Center
04:04PM 30.9814 -98.6775 94° East 447 514 33,800 -1,080 Descending Houston Center
04:05PM 30.9739 -98.5322 93° East 446 513 32,800 -1,020 Descending Houston Center
04:06PM 30.9658 -98.3914 94° East 434 499 31,800 -1,020 Descending Houston Center
04:07PM 30.9581 -98.2556 94° East 419 482 30,800 -1,020 Descending Houston Center
04:08PM 30.9497 -98.1253 94° East 402 463 29,800 -1,080 Descending Houston Center
04:09PM 30.9403 -97.9717 94° East 402 463 28,600 -1,080 Descending Houston Center
04:10PM 30.9333 -97.8431 94° East 395 455 27,600 -780 Descending Houston Center
04:11PM 30.9253 -97.7181 94° East 387 445 27,000 -300 Descending Houston Center
04:12PM 30.9175 -97.5925 94° East 386 444 27,000  Level Houston Center
04:13PM 30.9092 -97.4683 94° East 383 441 27,000  Level Houston Center
04:14PM 30.8994 -97.3303 95° East 384 442 27,000 -540 Level Houston Center
04:15PM 30.8919 -97.2047 94° East 387 445 26,000 -960 Descending Houston Center
04:16PM 30.8850 -97.0792 94° East 380 437 25,000 -960 Descending Houston Center
04:17PM 30.8767 -96.9608 95° East 358 412 24,000 -1,020 Descending Houston Center
04:18PM 30.8681 -96.8431 95° East 359 413 22,900 -1,080 Descending Houston Center
04:19PM 30.8608 -96.7281 94° East 350 403 21,800 -1,440 Descending Houston Center
04:20PM 30.8175 -96.5914 110° East 386 444 20,000 -1,800 Descending Houston Center
04:21PM 30.7614 -96.4800 120° Southeast 393 452 18,200 -1,800 Descending Houston Center
04:22PM 30.7089 -96.3750 120° Southeast 372 428 16,400 -1,800 Descending Houston Center
04:23PM 30.6558 -96.2650 119° Southeast 382 440 14,600 -1,740 Descending Houston Center
04:24PM 30.6033 -96.1622 121° Southeast 369 425 12,900 -1,740 Descending Houston Center
04:26PM 30.5489 -96.0664 123° Southeast 355 409 11,100 -1,380 Descending Houston Center
04:27PM 30.4967 -95.9756 124° Southeast 322 371 10,100 -540 Descending Houston Center
04:28PM 30.4444 -95.9067 131° Southeast 295 339 10,100 -120 Level Houston Center
04:29PM 30.3792 -95.8564 146° Southeast 285 328 9,900 -540 Descending Houston Center
04:30PM 30.3089 -95.8244 159° South 271 312 9,100 -1,260 Descending Houston Center
04:31PM 30.2261 -95.7922 161° South 261 300 7,400 -1,560 Descending Houston Center
04:32PM 30.1672 -95.7528 150° Southeast 247 284 5,900 -1,500 Descending Houston Center
04:33PM 30.1003 -95.7239 160° South 256 295 4,400 -1,020 Descending Houston Center
04:34PM 30.0386 -95.6983 160° South 242 278 3,800 -600 Descending Houston Center
04:35PM 30.0128 -95.6392 117° Southeast 222 255 3,200 -480 Descending Houston Center
04:36PM 30.0061 -95.5756 97° East 211 243 2,900 -480 Descending Houston Center
04:37PM 30.0067 -95.5008 89° East 199 229 2,300 -540 Descending Houston Center
04:38PM 30.0078 -95.4475 89° East 195 224 1,800 -840 Descending Houston Center
04:39PM 30.0075 -95.3864 90° East 142 163 600 -600 Descending Houston Center
04:40PM 30.0083 -95.3383 89° East 178 205 600  Level Houston Center
04:42PM 29.9833 -95.3333 131° Southeast  Level FlightAware Approximate